createdAt,value
2018-03-26T00:02:27.616Z,117.47
2018-03-26T00:04:56.797Z,113.07
2018-03-26T00:07:25.941Z,110.30
2018-03-26T00:09:55.109Z,109.63
2018-03-26T00:12:24.244Z,112.90
2018-03-26T00:14:53.642Z,109.73
2018-03-26T00:17:22.787Z,106.67
2018-03-26T00:19:51.926Z,111.03
2018-03-26T00:22:21.121Z,111.20
2018-03-26T00:24:50.258Z,109.80
2018-03-26T00:27:19.390Z,111.77
2018-03-26T00:29:48.569Z,110.80
2018-03-26T00:32:17.705Z,103.83
2018-03-26T00:34:46.867Z,110.27
2018-03-26T00:37:16.045Z,106.27
2018-03-26T00:39:45.302Z,118.90
2018-03-26T00:42:14.448Z,123.20
2018-03-26T00:44:43.594Z,120.53
2018-03-26T00:47:12.759Z,118.20
2018-03-26T00:49:41.907Z,123.50
2018-03-26T00:52:11.044Z,129.43
2018-03-26T00:54:40.233Z,124.30
2018-03-26T00:57:09.364Z,126.20
2018-03-26T00:59:38.511Z,122.70
2018-03-26T01:02:07.683Z,117.17
2018-03-26T01:04:36.821Z,113.17
2018-03-26T01:07:05.970Z,115.07
2018-03-26T01:09:35.163Z,116.60
2018-03-26T01:12:04.301Z,113.23
2018-03-26T01:14:33.505Z,122.40
2018-03-26T01:17:02.793Z,116.87
2018-03-26T01:19:31.933Z,113.40
2018-03-26T01:22:01.105Z,112.57
2018-03-26T01:24:30.237Z,113.87
2018-03-26T01:26:59.397Z,109.97
2018-03-26T01:29:28.545Z,108.37
2018-03-26T01:31:57.714Z,111.23
2018-03-26T01:34:26.893Z,112.53
2018-03-26T01:36:56.034Z,110.70
2018-03-26T01:39:25.176Z,119.27
2018-03-26T01:41:54.349Z,111.10
2018-03-26T01:44:23.502Z,118.80
2018-03-26T01:46:52.650Z,115.17
2018-03-26T01:49:21.789Z,113.00
2018-03-26T01:51:50.937Z,120.57
2018-03-26T01:54:20.184Z,113.33
2018-03-26T01:56:49.333Z,118.63
2018-03-26T01:59:18.472Z,114.20
2018-03-26T02:01:47.646Z,110.10
2018-03-26T02:04:16.790Z,110.83
2018-03-26T02:06:45.918Z,117.10
2018-03-26T02:09:15.097Z,118.40
2018-03-26T02:11:44.249Z,118.30
2018-03-26T02:14:13.401Z,114.33
2018-03-26T02:16:42.574Z,120.30
2018-03-26T02:19:12.095Z,115.37
2018-03-26T02:21:41.237Z,117.17
2018-03-26T02:24:10.424Z,117.03
2018-03-26T02:26:39.585Z,119.77
2018-03-26T02:29:08.771Z,117.37
2018-03-26T02:31:37.922Z,123.23
2018-03-26T02:34:07.074Z,123.37
2018-03-26T02:36:36.292Z,114.53
2018-03-26T02:39:05.438Z,120.50
2018-03-26T02:41:34.601Z,124.47
2018-03-26T02:44:03.849Z,118.57
2018-03-26T02:46:33.004Z,122.70
2018-03-26T02:49:02.143Z,123.13
2018-03-26T02:51:31.317Z,119.03
2018-03-26T02:54:00.462Z,120.90
2018-03-26T02:56:29.600Z,116.93
2018-03-26T02:58:58.786Z,117.60
2018-03-26T03:01:27.926Z,112.67
2018-03-26T03:03:57.103Z,117.53
2018-03-26T03:06:26.290Z,124.47
2018-03-26T03:08:55.501Z,125.87
2018-03-26T03:11:24.640Z,129.53
2018-03-26T03:13:53.879Z,120.27
2018-03-26T03:16:23.033Z,122.10
2018-03-26T03:18:52.171Z,122.70
2018-03-26T03:21:21.333Z,119.63
2018-03-26T03:23:50.486Z,118.17
2018-03-26T03:26:19.652Z,121.00
2018-03-26T03:28:48.802Z,125.40
2018-03-26T03:31:17.955Z,127.60
2018-03-26T03:33:47.158Z,125.70
2018-03-26T03:36:16.306Z,123.30
2018-03-26T03:38:45.480Z,118.87
2018-03-26T03:41:14.669Z,109.10
2018-03-26T03:43:43.819Z,124.90
2018-03-26T03:46:13.431Z,123.63
2018-03-26T03:48:42.582Z,126.03
2018-03-26T03:51:11.720Z,114.07
2018-03-26T03:53:40.919Z,127.70
2018-03-26T03:56:10.075Z,122.63
2018-03-26T03:58:39.244Z,120.80
2018-03-26T04:01:08.711Z,120.37
2018-03-26T04:03:37.859Z,114.93
2018-03-26T04:06:07.033Z,109.03
2018-03-26T04:08:36.168Z,113.70
2018-03-26T04:11:05.306Z,124.90
2018-03-26T04:13:34.471Z,119.33
2018-03-26T04:16:03.631Z,122.63
2018-03-26T04:18:32.786Z,125.00
2018-03-26T04:21:01.963Z,119.97
2018-03-26T04:23:31.122Z,125.10
2018-03-26T04:26:00.268Z,129.17
2018-03-26T04:28:29.442Z,116.97
2018-03-26T04:30:58.574Z,123.20
2018-03-26T04:33:27.754Z,122.83
2018-03-26T04:35:56.922Z,127.00
2018-03-26T04:38:26.065Z,125.17
2018-03-26T04:40:55.259Z,122.33
2018-03-26T04:43:24.406Z,121.90
2018-03-26T04:45:54.270Z,123.90
2018-03-26T04:48:23.446Z,128.77
2018-03-26T04:50:53.014Z,117.33
2018-03-26T04:53:22.162Z,115.30
2018-03-26T04:55:51.337Z,112.63
2018-03-26T04:58:20.557Z,119.67
2018-03-26T05:00:49.700Z,115.47
2018-03-26T05:03:18.837Z,121.10
2018-03-26T05:05:48.015Z,122.87
2018-03-26T05:08:17.158Z,117.10
2018-03-26T05:10:46.304Z,120.33
2018-03-26T05:13:15.472Z,118.97
2018-03-26T05:15:44.678Z,120.30
2018-03-26T05:18:13.821Z,118.87
2018-03-26T05:20:43.017Z,120.20
2018-03-26T05:23:12.168Z,120.60
2018-03-26T05:25:41.321Z,118.43
2018-03-26T05:28:10.490Z,119.87
2018-03-26T05:30:39.637Z,121.60
2018-03-26T05:33:08.774Z,114.77
2018-03-26T05:35:38.037Z,118.73
2018-03-26T05:38:07.216Z,119.20
2018-03-26T05:40:36.358Z,127.03
2018-03-26T05:43:05.537Z,122.07
2018-03-26T05:45:34.685Z,119.80
2018-03-26T05:48:03.841Z,121.27
2018-03-26T05:50:33.038Z,119.50
2018-03-26T05:53:02.213Z,123.57
2018-03-26T05:55:31.405Z,117.57
2018-03-26T05:58:00.553Z,121.87
2018-03-26T06:00:29.694Z,124.57
2018-03-26T06:02:58.889Z,118.77
2018-03-26T06:05:28.042Z,118.10
2018-03-26T06:07:57.187Z,129.67
2018-03-26T06:10:26.387Z,128.67
2018-03-26T06:12:56.049Z,112.67
2018-03-26T06:15:25.210Z,110.70
2018-03-26T06:17:54.426Z,109.83
2018-03-26T06:20:25.492Z,111.47
2018-03-26T06:22:54.676Z,104.17
2018-03-26T06:25:23.819Z,110.47
2018-03-26T06:27:52.963Z,111.43
2018-03-26T06:30:22.166Z,110.17
2018-03-26T06:32:51.326Z,106.00
2018-03-26T06:35:20.496Z,108.33
2018-03-26T06:37:54.423Z,110.70
2018-03-26T06:40:23.566Z,104.00
2018-03-26T06:42:52.708Z,103.40
2018-03-26T06:45:21.966Z,105.73
2018-03-26T06:47:51.104Z,107.57
2018-03-26T06:50:20.261Z,113.73
2018-03-26T06:52:49.412Z,107.77
2018-03-26T06:55:19.117Z,117.80
2018-03-26T06:57:48.489Z,110.70
2018-03-26T07:00:17.640Z,113.17
2018-03-26T07:02:46.773Z,107.97
2018-03-26T07:05:15.994Z,108.97
2018-03-26T07:07:45.136Z,112.17
2018-03-26T07:10:14.313Z,111.27
2018-03-26T07:12:43.502Z,112.17
2018-03-26T07:15:12.673Z,119.00
2018-03-26T07:20:23.087Z,114.60
2018-03-26T07:22:52.273Z,114.07
2018-03-26T07:25:21.429Z,119.37
2018-03-26T07:27:50.603Z,117.10
2018-03-26T07:30:19.762Z,112.80
2018-03-26T07:32:48.914Z,118.30
2018-03-26T07:35:18.232Z,123.43
2018-03-26T07:37:47.411Z,115.03
2018-03-26T07:40:16.558Z,116.60
2018-03-26T07:42:45.804Z,116.67
2018-03-26T07:45:14.956Z,115.07
2018-03-26T07:47:44.108Z,118.13
2018-03-26T07:50:13.293Z,115.80
2018-03-26T07:52:42.431Z,114.60
2018-03-26T07:55:11.594Z,118.07
2018-03-26T07:57:40.985Z,110.87
2018-03-26T08:00:10.737Z,110.53
2018-03-26T08:02:39.877Z,111.17
2018-03-26T08:05:09.109Z,112.30
2018-03-26T08:07:38.270Z,111.63
2018-03-26T08:10:07.453Z,113.80
2018-03-26T08:12:36.593Z,113.93
2018-03-26T08:15:05.744Z,115.37
2018-03-26T08:17:34.910Z,115.53
2018-03-26T08:20:04.050Z,112.93
2018-03-26T08:22:33.196Z,112.40
2018-03-26T08:25:02.362Z,107.60
2018-03-26T08:27:31.520Z,113.90
2018-03-26T08:30:00.729Z,111.57
2018-03-26T08:32:29.886Z,113.67
2018-03-26T08:34:59.029Z,108.20
2018-03-26T08:37:28.254Z,110.93
2018-03-26T08:39:57.450Z,115.80
2018-03-26T08:42:26.696Z,116.73
2018-03-26T08:44:55.788Z,109.33
2018-03-26T08:47:24.978Z,110.00
2018-03-26T08:49:54.211Z,110.17
2018-03-26T08:52:23.288Z,113.60
2018-03-26T08:54:52.453Z,112.07
2018-03-26T08:57:21.600Z,113.53
2018-03-26T08:59:50.754Z,119.00
2018-03-26T09:02:20.001Z,114.50
2018-03-26T09:04:49.152Z,118.13
2018-03-26T09:07:18.317Z,114.00
2018-03-26T09:09:47.522Z,111.63
2018-03-26T09:12:16.675Z,120.20
2018-03-26T09:14:45.877Z,113.77
2018-03-26T09:17:15.098Z,114.10
2018-03-26T09:19:44.415Z,111.23
2018-03-26T09:22:13.667Z,111.43
2018-03-26T09:24:42.830Z,112.10
2018-03-26T09:27:12.002Z,111.90
2018-03-26T09:29:41.176Z,112.63
2018-03-26T09:32:10.334Z,118.30
2018-03-26T09:34:39.469Z,120.70
2018-03-26T09:37:08.630Z,114.67
2018-03-26T09:39:37.891Z,119.73
2018-03-26T09:42:07.028Z,115.20
2018-03-26T09:44:36.194Z,111.27
2018-03-26T09:47:05.379Z,114.23
2018-03-26T09:49:34.523Z,117.30
2018-03-26T09:52:03.697Z,113.77
2018-03-26T09:54:32.874Z,117.37
2018-03-26T09:57:02.027Z,119.50
2018-03-26T09:59:31.176Z,114.63
2018-03-26T10:02:00.345Z,120.40
2018-03-26T10:04:29.483Z,119.87
2018-03-26T10:06:58.620Z,115.87
2018-03-26T10:09:27.792Z,119.77
2018-03-26T10:11:56.930Z,120.37
2018-03-26T10:14:26.075Z,118.70
2018-03-26T10:16:55.333Z,113.67
2018-03-26T10:19:24.487Z,121.20
2018-03-26T10:21:53.634Z,118.30
2018-03-26T10:24:22.962Z,120.93
2018-03-26T10:26:52.138Z,111.20
2018-03-26T10:29:21.289Z,126.20
2018-03-26T10:31:50.461Z,118.70
2018-03-26T10:34:19.613Z,119.50
2018-03-26T10:36:48.743Z,123.80
2018-03-26T10:39:17.916Z,123.90
2018-03-26T10:41:47.063Z,125.27
2018-03-26T10:44:16.242Z,119.60
2018-03-26T10:46:45.394Z,116.70
2018-03-26T10:49:14.541Z,120.47
2018-03-26T10:51:43.719Z,118.17
2018-03-26T10:54:12.863Z,121.33
2018-03-26T10:56:42.006Z,117.83
2018-03-26T10:59:11.573Z,114.77
2018-03-26T11:01:40.722Z,113.80
2018-03-26T11:04:09.881Z,117.27
2018-03-26T11:06:39.168Z,115.80
2018-03-26T11:09:08.320Z,113.10
2018-03-26T11:11:37.470Z,115.97
2018-03-26T11:14:06.636Z,111.50
2018-03-26T11:16:35.784Z,116.53
2018-03-26T11:19:04.926Z,110.27
2018-03-26T11:21:34.119Z,113.57
2018-03-26T11:24:03.333Z,113.30
2018-03-26T11:26:32.474Z,110.77
2018-03-26T11:29:01.621Z,115.80
2018-03-26T11:31:30.809Z,111.90
2018-03-26T11:33:59.954Z,111.60
2018-03-26T11:36:29.096Z,112.00
2018-03-26T11:38:58.268Z,112.10
2018-03-26T11:41:27.422Z,110.70
2018-03-26T11:43:56.570Z,114.60
2018-03-26T11:46:25.738Z,110.00
2018-03-26T11:48:54.892Z,105.53
2018-03-26T11:51:24.059Z,109.37
2018-03-26T11:53:53.198Z,107.67
2018-03-26T11:56:22.356Z,109.40
2018-03-26T11:58:51.545Z,111.83
2018-03-26T12:01:20.881Z,116.97
2018-03-26T12:03:50.022Z,110.70
2018-03-26T12:06:19.170Z,113.97
2018-03-26T12:08:48.338Z,113.47
2018-03-26T12:11:17.503Z,115.27
2018-03-26T12:13:46.674Z,123.47
2018-03-26T12:16:15.854Z,116.50
2018-03-26T12:18:45.009Z,114.37
2018-03-26T12:21:14.156Z,117.13
2018-03-26T12:23:49.154Z,116.67
2018-03-26T12:26:18.432Z,118.67
2018-03-26T12:28:53.383Z,120.70
2018-03-26T12:31:22.575Z,122.67
2018-03-26T12:33:57.465Z,117.63
2018-03-26T12:36:26.704Z,118.80
2018-03-26T12:38:55.873Z,122.37
2018-03-26T12:41:25.026Z,122.03
2018-03-26T12:43:54.177Z,120.63
2018-03-26T12:46:29.334Z,123.77
2018-03-26T12:48:58.497Z,121.10
2018-03-26T12:51:33.586Z,127.93
2018-03-26T12:54:02.738Z,126.10
2018-03-26T12:56:31.890Z,121.50
2018-03-26T12:59:01.092Z,123.83
2018-03-26T13:01:36.187Z,120.60
2018-03-26T13:04:05.351Z,124.80
2018-03-26T13:06:34.501Z,123.77
2018-03-26T13:09:03.653Z,134.30
2018-03-26T13:11:32.850Z,118.90
2018-03-26T13:14:01.982Z,128.17
2018-03-26T13:16:31.113Z,122.70
2018-03-26T13:19:00.279Z,121.90
2018-03-26T13:21:29.451Z,117.83
2018-03-26T13:23:58.597Z,119.70
2018-03-26T13:26:27.787Z,120.23
2018-03-26T13:28:56.955Z,120.80
2018-03-26T13:31:26.102Z,118.63
2018-03-26T13:33:55.291Z,119.23
2018-03-26T13:36:24.425Z,121.73
2018-03-26T13:38:53.571Z,120.27
2018-03-26T13:41:22.745Z,121.90
2018-03-26T13:43:51.892Z,122.80
2018-03-26T13:46:21.037Z,128.93
2018-03-26T13:48:50.219Z,117.37
2018-03-26T13:51:19.389Z,121.90
2018-03-26T13:53:48.543Z,123.97
2018-03-26T13:56:17.718Z,123.33
2018-03-26T13:58:46.864Z,123.33
2018-03-26T14:01:16.108Z,122.47
2018-03-26T14:03:45.773Z,121.00
2018-03-26T14:06:14.912Z,119.87
2018-03-26T14:08:49.930Z,121.63
2018-03-26T14:11:37.955Z,125.60
2018-03-26T14:14:13.144Z,120.27
2018-03-26T14:16:48.242Z,121.97
2018-03-26T14:19:17.422Z,120.43
2018-03-26T14:21:46.583Z,119.80
2018-03-26T14:24:15.797Z,124.07
2018-03-26T14:26:44.937Z,117.40
2018-03-26T14:29:14.077Z,122.33
2018-03-26T14:31:43.262Z,123.03
2018-03-26T14:34:12.406Z,123.57
2018-03-26T14:36:41.590Z,124.10
2018-03-26T14:39:10.806Z,123.40
2018-03-26T14:41:39.960Z,124.97
2018-03-26T14:44:09.101Z,120.00
2018-03-26T14:46:38.281Z,122.87
2018-03-26T14:49:07.451Z,129.87
2018-03-26T14:51:36.599Z,129.07
2018-03-26T14:54:05.750Z,130.87
2018-03-26T14:56:34.900Z,130.30
2018-03-26T14:59:04.041Z,140.47
2018-03-26T15:01:33.202Z,138.23
2018-03-26T15:04:02.397Z,136.13
2018-03-26T15:06:31.604Z,136.00
2018-03-26T15:09:00.798Z,138.53
2018-03-26T15:11:30.028Z,136.97
2018-03-26T15:13:59.162Z,145.53
2018-03-26T15:16:28.330Z,135.73
2018-03-26T15:18:57.501Z,162.17
2018-03-26T15:21:26.675Z,131.93
2018-03-26T15:23:55.830Z,135.27
2018-03-26T15:26:25.010Z,136.13
2018-03-26T15:28:54.189Z,132.07
2018-03-26T15:31:23.324Z,136.07
2018-03-26T15:33:52.486Z,138.27
2018-03-26T15:36:21.685Z,137.23
2018-03-26T15:38:50.830Z,138.67
2018-03-26T15:41:19.975Z,141.83
2018-03-26T15:43:49.150Z,133.90
2018-03-26T15:46:18.295Z,133.90
2018-03-26T15:48:47.457Z,136.07
2018-03-26T15:51:16.649Z,133.50
2018-03-26T15:53:45.790Z,134.67
2018-03-26T15:56:14.930Z,139.10
2018-03-26T15:58:44.074Z,131.17
2018-03-26T16:01:13.263Z,134.40
2018-03-26T16:03:42.402Z,144.23
2018-03-26T16:06:11.716Z,132.57
2018-03-26T16:08:40.913Z,134.67
2018-03-26T16:11:10.052Z,142.47
2018-03-26T16:13:39.200Z,135.77
2018-03-26T16:16:08.379Z,137.07
2018-03-26T16:18:39.463Z,135.63
2018-03-26T16:21:08.682Z,130.50
2018-03-26T16:23:37.811Z,140.20
2018-03-26T16:26:07.008Z,135.40
2018-03-26T16:28:36.150Z,134.47
2018-03-26T16:31:05.314Z,136.33
2018-03-26T16:33:34.491Z,140.73
2018-03-26T16:36:03.643Z,135.00
2018-03-26T16:38:32.788Z,135.77
2018-03-26T16:41:01.965Z,133.97
2018-03-26T16:43:31.112Z,138.03
2018-03-26T16:46:00.298Z,138.27
2018-03-26T16:48:29.453Z,142.07
2018-03-26T16:50:58.673Z,136.60
2018-03-26T16:53:27.822Z,135.33
2018-03-26T16:55:56.968Z,137.77
2018-03-26T16:58:26.142Z,139.60
2018-03-26T17:00:55.282Z,138.53
2018-03-26T17:03:24.428Z,137.90
2018-03-26T17:05:53.593Z,131.20
2018-03-26T17:08:23.309Z,141.37
2018-03-26T17:10:52.694Z,135.03
2018-03-26T17:13:21.829Z,135.07
2018-03-26T17:15:50.970Z,132.13
2018-03-26T17:18:20.113Z,134.27
2018-03-26T17:20:49.284Z,142.27
2018-03-26T17:23:18.433Z,130.80
2018-03-26T17:25:47.570Z,129.73
2018-03-26T17:28:16.737Z,133.97
2018-03-26T17:30:45.876Z,130.93
2018-03-26T17:33:15.059Z,133.50
2018-03-26T17:35:44.237Z,129.73
2018-03-26T17:38:13.428Z,136.23
2018-03-26T17:40:42.571Z,131.30
2018-03-26T17:43:11.760Z,139.70
2018-03-26T17:45:40.913Z,142.60
2018-03-26T17:48:10.047Z,136.70
2018-03-26T17:50:39.225Z,135.10
2018-03-26T17:53:08.368Z,136.57
2018-03-26T17:55:37.754Z,133.37
2018-03-26T17:58:06.932Z,136.30
2018-03-26T18:00:36.111Z,137.00
2018-03-26T18:03:05.251Z,131.47
2018-03-26T18:05:34.396Z,133.47
2018-03-26T18:08:03.580Z,123.87
2018-03-26T18:10:32.727Z,133.47
2018-03-26T18:13:01.904Z,134.40
2018-03-26T18:15:31.094Z,138.53
2018-03-26T18:18:00.248Z,133.07
2018-03-26T18:20:29.395Z,136.07
2018-03-26T18:22:58.574Z,136.37
2018-03-26T18:25:27.721Z,132.53
2018-03-26T18:27:56.872Z,142.97
2018-03-26T18:30:26.058Z,137.63
2018-03-26T18:32:55.202Z,143.20
2018-03-26T18:35:24.346Z,134.67
2018-03-26T18:37:53.516Z,151.70
2018-03-26T18:40:22.686Z,143.87
2018-03-26T18:42:51.817Z,143.57
2018-03-26T18:45:20.972Z,144.60
2018-03-26T18:47:50.141Z,153.10
2018-03-26T18:50:19.289Z,156.60
2018-03-26T18:52:48.442Z,157.57
2018-03-26T18:55:17.628Z,153.07
2018-03-26T18:57:46.784Z,145.87
2018-03-26T19:00:16.036Z,150.90
2018-03-26T19:02:45.173Z,181.33
2018-03-26T19:05:14.318Z,186.67
2018-03-26T19:07:43.492Z,171.70
2018-03-26T19:10:12.641Z,177.07
2018-03-26T19:12:42.078Z,179.07
2018-03-26T19:15:11.284Z,172.07
2018-03-26T19:17:40.427Z,179.20
2018-03-26T19:20:09.601Z,166.37
2018-03-26T19:22:38.746Z,151.60
2018-03-26T19:25:07.907Z,145.67
2018-03-26T19:27:37.051Z,160.20
2018-03-26T19:30:06.211Z,149.57
2018-03-26T19:32:35.414Z,143.53
2018-03-26T19:35:04.555Z,143.20
2018-03-26T19:37:33.732Z,143.00
2018-03-26T19:40:02.896Z,134.03
2018-03-26T19:42:32.038Z,142.10
2018-03-26T19:45:01.180Z,140.23
2018-03-26T19:47:30.367Z,139.43
2018-03-26T19:49:59.513Z,140.90
2018-03-26T19:52:28.650Z,134.50
2018-03-26T19:54:57.822Z,134.63
2018-03-26T19:57:26.965Z,134.10
2018-03-26T19:59:56.118Z,135.67
2018-03-26T20:02:25.322Z,143.67
2018-03-26T20:04:54.483Z,139.47
2018-03-26T20:07:23.637Z,139.77
2018-03-26T20:09:52.818Z,147.17
2018-03-26T20:12:22.006Z,143.67
2018-03-26T20:14:51.155Z,147.93
2018-03-26T20:17:20.323Z,150.83
2018-03-26T20:19:49.487Z,140.33
2018-03-26T20:22:18.638Z,152.10
2018-03-26T20:24:47.825Z,141.13
2018-03-26T20:27:16.991Z,149.13
2018-03-26T20:29:46.127Z,150.90
2018-03-26T20:32:15.325Z,131.50
2018-03-26T20:34:44.475Z,138.90
2018-03-26T20:37:13.661Z,141.90
2018-03-26T20:39:42.805Z,151.13
2018-03-26T20:42:11.955Z,143.77
2018-03-26T20:44:41.126Z,146.23
2018-03-26T20:47:10.273Z,141.80
2018-03-26T20:49:39.450Z,145.13
2018-03-26T20:52:08.607Z,146.07
2018-03-26T20:54:37.754Z,151.50
2018-03-26T20:57:06.930Z,153.97
2018-03-26T20:59:36.107Z,155.80
2018-03-26T21:02:05.245Z,152.97
2018-03-26T21:04:34.430Z,154.03
2018-03-26T21:07:03.584Z,155.77
2018-03-26T21:09:32.765Z,144.80
2018-03-26T21:12:03.774Z,157.80
2018-03-26T21:14:32.913Z,148.23
2018-03-26T21:17:02.581Z,154.13
2018-03-26T21:19:31.836Z,156.63
2018-03-26T21:22:01.020Z,158.23
2018-03-26T21:24:30.215Z,156.17
2018-03-26T21:26:59.382Z,145.93
2018-03-26T21:29:28.546Z,149.70
2018-03-26T21:31:57.694Z,151.20
2018-03-26T21:34:26.870Z,140.87
2018-03-26T21:36:56.041Z,153.00
2018-03-26T21:39:25.174Z,143.17
2018-03-26T21:41:54.365Z,149.77
2018-03-26T21:44:23.510Z,161.43
2018-03-26T21:46:52.654Z,148.47
2018-03-26T21:49:21.826Z,148.10
2018-03-26T21:51:50.994Z,155.30
2018-03-26T21:54:20.142Z,141.37
2018-03-26T21:56:49.297Z,148.83
2018-03-26T21:59:18.476Z,144.00
2018-03-26T22:01:47.626Z,146.33
2018-03-26T22:04:16.893Z,145.07
2018-03-26T22:06:46.082Z,144.53
2018-03-26T22:09:15.270Z,145.50
2018-03-26T22:11:44.415Z,140.60
2018-03-26T22:14:13.618Z,151.77
2018-03-26T22:16:42.781Z,136.60
2018-03-26T22:19:11.970Z,150.00
2018-03-26T22:21:41.202Z,140.53
2018-03-26T22:24:10.344Z,141.70
2018-03-26T22:26:39.495Z,143.10
2018-03-26T22:29:08.692Z,141.70
2018-03-26T22:31:37.953Z,146.93
2018-03-26T22:34:07.099Z,145.17
2018-03-26T22:36:36.262Z,139.60
2018-03-26T22:39:05.402Z,139.07
2018-03-26T22:41:34.562Z,147.37
2018-03-26T22:44:03.705Z,143.30
2018-03-26T22:46:32.846Z,143.27
2018-03-26T22:49:02.038Z,140.47
2018-03-26T22:51:31.182Z,143.00
2018-03-26T22:54:00.324Z,145.13
2018-03-26T22:56:29.490Z,148.10
2018-03-26T22:58:58.624Z,144.97
2018-03-26T23:01:27.774Z,144.43
2018-03-26T23:03:56.946Z,141.63
2018-03-26T23:06:26.101Z,143.17
2018-03-26T23:08:55.237Z,146.77
2018-03-26T23:11:24.397Z,144.30
2018-03-26T23:13:53.556Z,137.47
2018-03-26T23:16:22.704Z,143.43
2018-03-26T23:18:51.871Z,140.53
2018-03-26T23:21:21.163Z,146.43
2018-03-26T23:23:50.363Z,144.57
2018-03-26T23:26:19.933Z,148.00
2018-03-26T23:28:49.072Z,148.17
2018-03-26T23:31:18.213Z,139.37
2018-03-26T23:33:47.425Z,141.10
2018-03-26T23:36:16.620Z,152.80
2018-03-26T23:38:45.733Z,151.90
2018-03-26T23:41:14.882Z,152.53
2018-03-26T23:43:44.031Z,154.10
2018-03-26T23:46:13.194Z,152.10
2018-03-26T23:48:42.344Z,149.87
2018-03-26T23:51:11.524Z,147.30
2018-03-26T23:53:40.673Z,151.87
2018-03-26T23:56:09.810Z,155.17
2018-03-26T23:58:38.937Z,161.33
